Terminal Aerodrome Forecast
Issued by NWS

Home | Current Version | Previous Version | Text Only | Print | Product List | Glossary Off
Versions: 1 2 3 4 5 6 7 8 9 10 11 12 13 14 15 16 17 18 19 20 21 22 23

000
FTUS43 KGRB 171730
TAFAUW
TAF
KAUW 171730Z 1718/1818 21012G20KT P6SM -SHRA SCT008 OVC015
      TEMPO 1718/1720 4SM SHRA BKN008
     FM172000 25013G21KT P6SM VCSH SCT008 OVC015
      TEMPO 1722/1802 BKN008
     FM180200 30010G17KT P6SM OVC008
     FM181300 30011G18KT P6SM BKN015
     FM181500 30011G18KT P6SM SCT025 BKN040=

USA.gov is the U.S. government's official web portal to all federal, state and local government web resources and services.